Time;durP1;ratioP1;P1;durP2;ratioP2;P2;SDS_P1;SDS_P2;PMS_P1;PMS_P2;Temp;Humidity;BMP_temperature;BMP_pressure;BME280_temperature;BME280_humidity;BME280_pressure;Samples;Min_cycle;Max_cycle;Signal;HPM_P1;HPM_P2
2022/10/14 00:00:04;;;;;;;12.20;7.90;;;;;;;10.60;94.86;101860.08;107275;1269;62599;-73
2022/10/14 00:02:58;;;;;;;12.30;7.50;;;;;;;10.57;95.08;101856.75;107144;1278;71452;-73
2022/10/14 00:05:27;;;;;;;12.40;8.10;;;;;;;10.58;94.73;101854.60;107182;1278;71134;-74
2022/10/14 00:07:56;;;;;;;14.00;7.60;;;;;;;10.52;95.06;101854.58;107186;1276;62145;-74
2022/10/14 00:10:24;;;;;;;14.10;7.30;;;;;;;10.49;95.42;101854.42;107203;1271;58271;-74
2022/10/14 00:12:53;;;;;;;12.40;7.90;;;;;;;10.48;95.09;101848.90;107214;1268;73293;-75
2022/10/14 00:15:22;;;;;;;14.80;7.40;;;;;;;10.44;95.07;101844.21;107290;1269;61410;-73
2022/10/14 00:17:50;;;;;;;10.10;7.30;;;;;;;10.43;95.27;101840.98;107135;1268;69614;-74
2022/10/14 00:20:19;;;;;;;10.20;7.10;;;;;;;10.44;95.27;101839.85;107157;1270;63560;-74
2022/10/14 00:22:48;;;;;;;11.20;7.00;;;;;;;10.46;95.29;101837.34;107197;1268;62171;-73
2022/10/14 00:25:17;;;;;;;11.40;7.20;;;;;;;10.50;95.32;101838.34;107206;1268;59068;-74
2022/10/14 00:27:46;;;;;;;11.00;6.90;;;;;;;10.48;94.91;101834.08;107140;1268;63776;-74
2022/10/14 00:30:15;;;;;;;11.10;6.80;;;;;;;10.48;94.75;101832.13;107320;1268;70465;-74
2022/10/14 00:32:43;;;;;;;10.50;6.70;;;;;;;10.47;94.52;101829.61;107207;1263;60148;-74
2022/10/14 00:35:12;;;;;;;9.50;7.30;;;;;;;10.42;94.81;101828.81;107228;1275;62495;-74
2022/10/14 00:37:40;;;;;;;10.70;7.10;;;;;;;10.35;94.74;101827.48;107237;1264;62216;-74
2022/10/14 00:40:10;;;;;;;12.20;7.60;;;;;;;10.29;95.45;101825.20;107222;1277;58103;-74
2022/10/14 00:42:39;;;;;;;12.10;7.00;;;;;;;10.35;95.22;101819.11;107165;1261;63778;-74
2022/10/14 00:45:15;;;;;;;10.20;6.60;;;;;;;10.37;94.89;101812.05;107202;1270;72175;-74
2022/10/14 00:47:44;;;;;;;12.80;7.20;;;;;;;10.38;94.77;101809.02;107084;1268;70430;-75
2022/10/14 00:50:14;;;;;;;11.10;7.00;;;;;;;10.32;94.90;101809.17;107165;1276;73101;-73
2022/10/14 00:52:44;;;;;;;11.20;7.20;;;;;;;10.30;94.97;101804.73;107129;1278;58366;-74
2022/10/14 00:55:17;;;;;;;10.40;6.40;;;;;;;10.31;94.98;101805.06;107144;1271;57842;-74
2022/10/14 00:57:46;;;;;;;9.30;6.50;;;;;;;10.38;94.54;101803.45;107282;1273;63821;-74
2022/10/14 01:00:18;;;;;;;11.80;6.80;;;;;;;10.37;94.49;101799.49;107304;1265;60892;-74
2022/10/14 01:02:48;;;;;;;8.80;6.30;;;;;;;10.38;94.34;101797.54;107218;1268;60000;-73
2022/10/14 01:05:19;;;;;;;8.80;6.50;;;;;;;10.35;94.39;101797.16;107174;1273;72844;-72
2022/10/14 01:07:57;;;;;;;11.00;6.60;;;;;;;10.42;94.00;101793.80;107199;1269;63601;-72
2022/10/14 01:11:01;;;;;;;10.90;7.00;;;;;;;10.44;94.06;101794.79;107047;1272;58305;-73
2022/10/14 01:13:39;;;;;;;9.10;6.40;;;;;;;10.39;94.30;101795.92;107049;1271;63785;-72
2022/10/14 01:16:42;;;;;;;10.10;6.70;;;;;;;10.39;94.26;101795.55;107151;1272;72153;-72
2022/10/14 01:20:34;;;;;;;12.10;7.10;;;;;;;10.39;94.03;101797.11;107058;1277;70833;-72
2022/10/14 01:23:32;;;;;;;11.20;6.50;;;;;;;10.44;93.68;101798.80;106979;1272;71879;-72
2022/10/14 01:26:40;;;;;;;9.60;6.50;;;;;;;10.44;93.83;101797.55;107125;1276;61267;-72
2022/10/14 01:29:39;;;;;;;10.50;6.40;;;;;;;10.44;93.92;101797.23;107165;1269;60472;-72
2022/10/14 01:32:18;;;;;;;12.70;7.10;;;;;;;10.45;93.81;101795.73;107170;1272;65556;-73
2022/10/14 01:35:07;;;;;;;14.00;7.20;;;;;;;10.43;93.64;101798.11;107088;1266;60846;-73
2022/10/14 01:37:47;;;;;;;11.80;6.80;;;;;;;10.37;93.97;101790.60;106929;1274;70464;-73
2022/10/14 01:40:50;;;;;;;14.30;7.40;;;;;;;10.38;93.90;101789.71;106973;1278;62419;-74
2022/10/14 01:43:21;;;;;;;11.80;6.30;;;;;;;10.41;93.91;101788.31;107087;1267;61331;-74
2022/10/14 01:45:52;;;;;;;13.00;6.60;;;;;;;10.44;93.74;101787.10;107122;1272;58275;-74
2022/10/14 01:48:27;;;;;;;12.50;6.90;;;;;;;10.44;93.78;101784.32;107129;1274;63035;-74
2022/10/14 01:51:00;;;;;;;8.30;6.70;;;;;;;10.47;93.30;101778.56;107181;1263;72263;-74
2022/10/14 01:53:37;;;;;;;10.70;6.50;;;;;;;10.53;93.17;101778.77;107141;1271;70255;-73
2022/10/14 01:56:06;;;;;;;9.10;6.80;;;;;;;10.54;93.07;101778.18;107050;1274;73771;-73
2022/10/14 01:58:38;;;;;;;14.10;6.80;;;;;;;10.49;93.22;101783.84;106946;1271;60995;-73
2022/10/14 02:01:08;;;;;;;8.80;6.40;;;;;;;10.54;93.06;101780.95;107231;1273;60806;-74
2022/10/14 02:03:43;;;;;;;10.40;6.80;;;;;;;10.56;92.55;101781.73;107077;1274;63669;-73
2022/10/14 02:06:22;;;;;;;12.00;6.40;;;;;;;10.52;92.51;101781.27;107224;1264;72274;-74
2022/10/14 02:08:59;;;;;;;11.60;6.70;;;;;;;10.54;92.00;101779.22;107134;1271;70988;-74
2022/10/14 02:11:44;;;;;;;11.10;6.60;;;;;;;10.43;92.09;101784.02;107275;1268;72984;-74
2022/10/14 02:14:50;;;;;;;14.00;7.00;;;;;;;10.41;92.04;101782.54;107020;1271;58554;-74
2022/10/14 02:17:28;;;;;;;11.30;6.00;;;;;;;10.39;91.97;101779.53;107049;1274;57716;-73
2022/10/14 02:20:02;;;;;;;9.00;5.40;;;;;;;10.42;91.45;101781.14;107083;1270;62976;-72
2022/10/14 02:22:39;;;;;;;9.40;5.80;;;;;;;10.37;91.21;101782.95;107114;1266;61597;-72
2022/10/14 02:25:24;;;;;;;10.00;5.40;;;;;;;10.36;91.20;101784.59;106955;1268;59186;-72
2022/10/14 02:27:53;;;;;;;10.10;5.50;;;;;;;10.33;91.44;101786.48;107119;1263;62560;-71
2022/10/14 02:30:22;;;;;;;11.50;6.60;;;;;;;10.32;91.35;101784.45;107132;1268;58485;-70
2022/10/14 02:32:59;;;;;;;13.70;6.10;;;;;;;10.39;91.22;101783.91;107147;1266;60402;-74
2022/10/14 02:35:30;;;;;;;13.30;6.10;;;;;;;10.34;91.33;101781.70;107142;1271;64440;-72
2022/10/14 02:38:00;;;;;;;11.30;6.00;;;;;;;10.32;91.37;101781.63;107200;1266;71346;-72
2022/10/14 02:40:37;;;;;;;10.60;5.40;;;;;;;10.39;91.11;101782.48;107095;1268;68479;-73
2022/10/14 02:43:08;;;;;;;12.50;6.10;;;;;;;10.34;91.49;101782.92;107112;1267;62326;-74
2022/10/14 02:45:40;;;;;;;11.40;5.90;;;;;;;10.31;91.66;101781.15;107100;1266;57858;-75
2022/10/14 02:48:10;;;;;;;9.10;5.90;;;;;;;10.31;91.80;101778.06;107116;1259;60763;-74
2022/10/14 02:50:40;;;;;;;8.10;5.60;;;;;;;10.30;91.75;101778.24;107218;1269;63272;-74
2022/10/14 02:53:13;;;;;;;10.10;5.60;;;;;;;10.27;91.86;101778.08;107305;1263;61039;-75
2022/10/14 02:55:45;;;;;;;11.30;6.20;;;;;;;10.25;92.00;101776.96;107226;1271;70892;-73
2022/10/14 02:58:13;;;;;;;9.50;6.10;;;;;;;10.29;91.82;101779.16;107142;1274;73665;-74
2022/10/14 03:00:42;;;;;;;12.70;5.90;;;;;;;10.30;92.01;101776.55;107246;1272;57793;-71
2022/10/14 03:03:11;;;;;;;12.80;5.90;;;;;;;10.38;91.62;101769.84;107188;1278;60424;-75
2022/10/14 03:05:41;;;;;;;12.40;6.80;;;;;;;10.42;91.27;101767.38;107289;1271;63788;-72
2022/10/14 03:08:13;;;;;;;9.90;5.70;;;;;;;10.38;91.59;101762.70;107338;1266;72344;-74
2022/10/14 03:10:46;;;;;;;15.60;7.10;;;;;;;10.43;91.16;101764.86;107243;1268;69553;-73
2022/10/14 03:13:15;;;;;;;11.90;6.10;;;;;;;10.41;91.43;101764.27;107148;1268;64700;-74
2022/10/14 03:15:50;;;;;;;12.40;5.80;;;;;;;10.38;91.18;101764.09;107111;1269;63067;-73
2022/10/14 03:18:20;;;;;;;11.10;5.60;;;;;;;10.39;91.33;101765.80;107190;1278;57698;-74
2022/10/14 03:20:49;;;;;;;12.40;6.20;;;;;;;10.40;91.12;101767.81;107121;1276;64492;-73
2022/10/14 03:23:22;;;;;;;12.60;6.30;;;;;;;10.34;91.12;101770.08;107143;1269;61655;-74
2022/10/14 03:25:51;;;;;;;13.90;5.90;;;;;;;10.32;91.05;101768.45;107065;1277;70301;-73
2022/10/14 03:28:34;;;;;;;11.70;6.20;;;;;;;10.33;90.91;101768.35;107112;1274;63124;-74
2022/10/14 03:31:49;;;;;;;10.40;6.50;;;;;;;10.37;90.72;101767.98;107099;1271;58223;-72
2022/10/14 03:34:23;;;;;;;11.60;6.00;;;;;;;10.48;90.43;101765.64;107189;1272;61256;-73
2022/10/14 03:36:59;;;;;;;13.50;6.60;;;;;;;10.45;90.32;101761.98;107197;1277;74224;-73
2022/10/14 03:39:28;;;;;;;13.50;6.60;;;;;;;10.42;90.51;101762.46;107297;1263;72014;-74
2022/10/14 03:42:03;;;;;;;12.00;5.70;;;;;;;10.40;90.40;101761.20;107229;1276;59503;-72
2022/10/14 03:44:38;;;;;;;10.50;6.10;;;;;;;10.43;90.04;101759.97;107145;1278;63235;-72
2022/10/14 03:47:12;;;;;;;13.70;6.70;;;;;;;10.42;90.08;101756.92;107212;1268;60406;-75
2022/10/14 03:49:41;;;;;;;9.90;6.40;;;;;;;10.41;90.26;101753.84;107192;1271;58306;-74
2022/10/14 03:52:16;;;;;;;12.60;6.20;;;;;;;10.41;90.16;101752.77;107197;1264;74432;-73
2022/10/14 03:54:44;;;;;;;11.30;6.10;;;;;;;10.48;89.55;101751.88;107282;1258;62329;-71
2022/10/14 03:57:14;;;;;;;8.90;6.00;;;;;;;10.43;89.70;101752.36;107206;1272;70672;-73
2022/10/14 03:59:48;;;;;;;10.90;6.30;;;;;;;10.43;89.71;101749.55;107225;1268;73840;-75
2022/10/14 04:02:17;;;;;;;13.50;6.10;;;;;;;10.42;89.80;101748.89;107148;1270;58251;-75
2022/10/14 04:04:47;;;;;;;11.50;5.70;;;;;;;10.43;89.65;101748.83;107231;1272;58091;-77
2022/10/14 04:07:16;;;;;;;14.10;5.80;;;;;;;10.47;89.25;101750.03;107337;1269;74184;-75
2022/10/14 04:09:49;;;;;;;9.80;5.40;;;;;;;10.46;89.30;101750.43;107333;1270;61682;-74
2022/10/14 04:12:18;;;;;;;10.60;5.60;;;;;;;10.38;89.87;101751.02;107283;1266;61349;-72
2022/10/14 04:15:03;;;;;;;10.70;5.70;;;;;;;10.35;90.19;101754.84;107259;1271;62500;-72
2022/10/14 04:17:37;;;;;;;11.00;5.20;;;;;;;10.31;90.28;101753.11;107278;1265;61962;-73
2022/10/14 04:20:11;;;;;;;11.40;6.00;;;;;;;10.35;90.31;101755.20;107289;1278;58123;-74
2022/10/14 04:22:39;;;;;;;10.40;5.70;;;;;;;10.31;90.64;101753.83;107258;1265;66038;-76
2022/10/14 04:25:09;;;;;;;12.70;5.50;;;;;;;10.38;90.31;101753.15;107363;1271;61579;-74
2022/10/14 04:27:37;;;;;;;12.50;6.00;;;;;;;10.35;90.11;101755.02;107165;1271;69666;-75
2022/10/14 04:30:09;;;;;;;10.70;5.80;;;;;;;10.31;90.18;101757.50;107236;1264;62959;-75
2022/10/14 04:32:46;;;;;;;10.00;5.80;;;;;;;10.31;90.18;101754.67;107251;1278;58314;-74
2022/10/14 04:35:17;;;;;;;10.20;5.80;;;;;;;10.37;89.43;101753.19;107297;1268;61184;-75
2022/10/14 04:37:48;;;;;;;10.60;5.90;;;;;;;10.36;89.28;101750.61;107290;1268;62882;-74
2022/10/14 04:40:25;;;;;;;16.30;6.60;;;;;;;10.37;89.39;101749.86;107383;1259;71642;-76
2022/10/14 04:42:56;;;;;;;11.50;6.10;;;;;;;10.38;89.26;101750.35;107297;1272;69768;-73
2022/10/14 04:45:28;;;;;;;13.50;6.50;;;;;;;10.38;89.15;101746.14;107265;1269;63584;-73
2022/10/14 04:48:00;;;;;;;12.00;5.80;;;;;;;10.42;88.86;101742.80;107277;1268;62099;-74
2022/10/14 04:50:29;;;;;;;12.00;5.90;;;;;;;10.45;88.53;101738.47;107235;1268;58202;-72
2022/10/14 04:53:17;;;;;;;9.90;6.20;;;;;;;10.48;87.90;101739.30;107256;1271;74275;-73
2022/10/14 04:56:30;;;;;;;11.60;6.30;;;;;;;10.40;87.80;101733.33;107225;1276;62000;-73
2022/10/14 04:59:01;;;;;;;12.50;5.80;;;;;;;10.42;88.01;101737.92;107261;1271;59189;-75
2022/10/14 05:01:45;;;;;;;13.10;5.40;;;;;;;10.40;87.97;101738.73;107225;1271;71729;-74
2022/10/14 05:04:13;;;;;;;12.00;5.70;;;;;;;10.50;87.23;101737.49;107202;1278;62882;-71
2022/10/14 05:06:42;;;;;;;12.80;5.20;;;;;;;10.48;87.27;101736.39;107334;1265;57754;-70
2022/10/14 05:09:12;;;;;;;13.40;5.50;;;;;;;10.48;87.21;101734.11;107238;1266;73336;-70
2022/10/14 05:11:41;;;;;;;13.50;6.20;;;;;;;10.48;87.05;101734.98;107326;1263;62071;-72
2022/10/14 05:14:11;;;;;;;10.60;5.40;;;;;;;10.45;86.54;101737.92;107260;1268;70570;-72
2022/10/14 05:16:40;;;;;;;11.10;5.50;;;;;;;10.47;86.22;101734.50;107363;1262;63175;-71
2022/10/14 05:19:09;;;;;;;12.10;6.00;;;;;;;10.43;86.52;101733.16;106958;1267;440506;-77
2022/10/14 05:21:43;;;;;;;9.30;5.20;;;;;;;10.52;85.71;101729.51;107308;1272;59696;-77
2022/10/14 05:24:15;;;;;;;9.90;5.50;;;;;;;10.55;85.36;101733.73;107173;1268;63039;-80
2022/10/14 05:26:44;;;;;;;12.60;5.50;;;;;;;10.58;85.05;101739.11;107352;1263;71313;-83
2022/10/14 05:29:13;;;;;;;11.60;5.40;;;;;;;10.62;84.69;101743.09;107226;1274;60333;-80
2022/10/14 05:31:42;;;;;;;13.80;5.40;;;;;;;10.63;84.62;101743.73;107225;1274;71218;-79
2022/10/14 05:34:26;;;;;;;16.60;5.40;;;;;;;10.65;84.40;101749.14;107258;1269;61695;-80
2022/10/14 05:36:56;;;;;;;16.00;6.20;;;;;;;10.66;84.38;101751.77;107311;1268;60605;-83
2022/10/14 05:39:25;;;;;;;9.80;5.60;;;;;;;10.73;84.16;101753.62;107311;1272;62915;-83
2022/10/14 05:41:55;;;;;;;13.50;6.00;;;;;;;10.77;83.93;101757.05;107379;1259;61601;-81
2022/10/14 05:44:25;;;;;;;14.90;6.20;;;;;;;10.81;83.69;101758.87;107210;1268;70482;-81
2022/10/14 05:46:54;;;;;;;15.40;5.80;;;;;;;10.85;83.33;101759.73;107295;1271;73630;-80
2022/10/14 05:49:23;;;;;;;11.30;5.90;;;;;;;10.88;83.25;101761.47;107252;1278;57691;-80
2022/10/14 05:51:53;;;;;;;11.10;5.80;;;;;;;10.88;82.86;101760.96;107249;1272;60460;-79
2022/10/14 05:54:23;;;;;;;12.30;6.00;;;;;;;10.91;82.92;101761.27;107211;1277;64253;-81
2022/10/14 05:56:53;;;;;;;10.80;5.20;;;;;;;11.05;82.95;101762.73;107225;1266;71198;-80
2022/10/14 05:59:22;;;;;;;11.30;5.50;;;;;;;11.12;82.55;101761.65;107152;1274;60372;-80
2022/10/14 06:01:51;;;;;;;17.60;5.70;;;;;;;11.20;82.32;101765.38;107241;1268;72930;-80
2022/10/14 06:04:20;;;;;;;14.70;6.70;;;;;;;11.25;81.88;101765.75;107222;1272;62053;-78
2022/10/14 06:06:49;;;;;;;13.30;5.40;;;;;;;11.31;81.89;101765.74;107219;1271;60763;-79
2022/10/14 06:09:18;;;;;;;14.00;5.50;;;;;;;11.32;81.83;101766.92;107195;1267;74324;-79
2022/10/14 06:11:47;;;;;;;12.60;5.90;;;;;;;11.33;82.06;101763.70;107270;1266;61496;-78
2022/10/14 06:14:15;;;;;;;9.50;5.00;;;;;;;11.34;81.78;101761.55;107176;1271;61278;-78
2022/10/14 06:16:49;;;;;;;9.30;4.90;;;;;;;11.41;81.79;101762.56;107115;1275;63248;-81
2022/10/14 06:19:18;;;;;;;11.70;5.20;;;;;;;11.44;81.10;101765.70;107047;1275;62844;-80
2022/10/14 06:21:46;;;;;;;13.70;5.90;;;;;;;11.37;81.52;101768.05;107084;1268;57657;-79
2022/10/14 06:24:15;;;;;;;13.70;5.80;;;;;;;11.31;81.90;101767.02;107041;1275;62795;-78
2022/10/14 06:26:44;;;;;;;14.70;6.60;;;;;;;11.31;81.88;101765.75;107128;1273;61608;-81
2022/10/14 06:29:13;;;;;;;13.40;6.20;;;;;;;11.37;81.79;101769.44;107019;1275;69760;-79
2022/10/14 06:31:42;;;;;;;13.10;5.60;;;;;;;11.35;81.64;101774.25;106953;1280;74282;-81
2022/10/14 06:34:11;;;;;;;14.20;6.40;;;;;;;11.41;81.73;101773.23;106992;1275;58219;-82
2022/10/14 06:36:39;;;;;;;11.70;6.30;;;;;;;11.32;81.92;101772.50;107076;1271;60248;-81
2022/10/14 06:39:08;;;;;;;11.70;5.40;;;;;;;11.43;82.28;101773.97;107075;1271;72997;-84
2022/10/14 06:41:37;;;;;;;8.70;5.40;;;;;;;11.50;81.66;101769.38;107182;1262;70314;-79
2022/10/14 06:44:07;;;;;;;10.30;5.30;;;;;;;11.58;81.64;101775.34;107128;1271;70468;-80
2022/10/14 06:46:35;;;;;;;10.60;5.20;;;;;;;11.64;81.36;101772.52;107145;1277;75174;-82
2022/10/14 06:49:04;;;;;;;13.20;4.90;;;;;;;11.68;81.14;101775.27;107181;1271;58209;-78
2022/10/14 06:51:37;;;;;;;11.70;5.00;;;;;;;11.67;80.74;101776.52;107144;1273;57770;-83
2022/10/14 06:54:06;;;;;;;9.20;5.20;;;;;;;11.73;80.48;101778.13;107169;1268;63811;-77
2022/10/14 06:56:35;;;;;;;10.70;5.10;;;;;;;11.70;80.52;101775.50;107122;1277;62277;-81
2022/10/14 06:59:04;;;;;;;10.80;5.10;;;;;;;11.68;80.59;101775.10;107140;1278;59231;-78
2022/10/14 07:01:33;;;;;;;13.80;5.70;;;;;;;11.80;80.24;101775.41;107030;1271;62466;-76
2022/10/14 07:04:03;;;;;;;9.90;5.00;;;;;;;11.71;79.78;101772.30;107012;1277;62882;-76
2022/10/14 07:06:32;;;;;;;10.40;5.00;;;;;;;11.77;79.64;101771.59;106992;1281;57735;-79
2022/10/14 07:09:00;;;;;;;10.90;5.00;;;;;;;11.87;79.71;101770.61;107024;1271;73541;-81
2022/10/14 07:11:29;;;;;;;10.00;5.10;;;;;;;11.93;79.67;101773.75;106977;1275;62223;-79
2022/10/14 07:13:58;;;;;;;12.10;5.60;;;;;;;11.89;79.32;101771.38;107055;1267;59199;-78
2022/10/14 07:16:27;;;;;;;12.80;5.70;;;;;;;11.83;79.12;101772.10;107053;1268;73807;-81
2022/10/14 07:18:56;;;;;;;9.00;5.40;;;;;;;11.84;78.81;101771.35;107018;1277;61169;-79
2022/10/14 07:21:24;;;;;;;11.70;6.20;;;;;;;11.85;78.59;101770.40;107170;1268;58362;-81
2022/10/14 07:23:54;;;;;;;13.30;5.40;;;;;;;11.91;79.03;101770.58;107165;1271;74346;-80
2022/10/14 07:26:23;;;;;;;10.90;5.30;;;;;;;11.92;78.89;101769.98;107286;1271;72299;-81
2022/10/14 07:28:51;;;;;;;13.40;8.80;;;;;;;11.93;78.84;101767.52;107176;1278;59074;-80
2022/10/14 07:31:20;;;;;;;19.70;12.10;;;;;;;11.81;78.76;101767.51;107125;1272;62540;-77
2022/10/14 07:33:48;;;;;;;14.70;7.90;;;;;;;11.90;78.59;101765.05;107086;1272;60401;-78
2022/10/14 07:36:18;;;;;;;13.10;6.60;;;;;;;11.93;78.33;101771.48;107181;1278;58201;-79
2022/10/14 07:38:50;;;;;;;10.80;5.70;;;;;;;11.91;78.40;101771.62;107168;1264;73578;-78
2022/10/14 07:41:23;;;;;;;14.80;5.50;;;;;;;11.81;78.55;101769.60;107313;1266;71239;-80
2022/10/14 07:44:05;;;;;;;68.30;29.90;;;;;;;11.88;78.46;101770.95;107250;1268;71606;-79
2022/10/14 07:46:38;;;;;;;10.40;6.60;;;;;;;11.94;78.62;101770.39;107159;1274;73137;-78
2022/10/14 07:49:15;;;;;;;10.30;6.50;;;;;;;11.90;78.53;101773.44;107211;1272;57701;-77
2022/10/14 07:51:45;;;;;;;13.40;7.40;;;;;;;11.96;78.25;101775.88;107199;1268;61328;-78
2022/10/14 07:54:25;;;;;;;14.40;6.60;;;;;;;12.01;78.50;101777.14;107232;1272;75606;-77
2022/10/14 07:56:53;;;;;;;14.10;6.90;;;;;;;12.05;77.95;101773.06;107315;1262;72105;-79
2022/10/14 07:59:22;;;;;;;12.70;5.60;;;;;;;12.01;78.19;101773.98;107227;1274;59248;-80
2022/10/14 08:01:53;;;;;;;17.60;6.80;;;;;;;12.08;78.07;101778.25;107234;1276;63295;-79
2022/10/14 08:04:22;;;;;;;11.90;7.50;;;;;;;12.09;77.84;101776.28;107120;1272;62976;-81
2022/10/14 08:06:52;;;;;;;15.30;6.00;;;;;;;12.09;77.91;101776.95;107243;1277;57646;-80
2022/10/14 08:09:21;;;;;;;12.00;6.70;;;;;;;12.15;77.83;101778.73;107076;1277;63754;-79
2022/10/14 08:11:50;;;;;;;14.80;7.50;;;;;;;12.19;77.78;101774.98;107321;1269;72220;-78
2022/10/14 08:14:18;;;;;;;16.00;7.00;;;;;;;12.22;77.92;101778.28;107227;1270;71076;-75
2022/10/14 08:16:47;;;;;;;16.00;6.60;;;;;;;12.17;78.04;101778.05;107338;1269;64941;-78
2022/10/14 08:19:18;;;;;;;38.20;25.50;;;;;;;12.21;78.22;101778.33;107157;1274;58161;-80
2022/10/14 08:21:50;;;;;;;17.20;7.50;;;;;;;12.31;77.74;101777.52;107248;1278;57743;-81
2022/10/14 08:24:19;;;;;;;12.60;6.50;;;;;;;12.35;77.32;101777.81;107227;1274;62971;-79
2022/10/14 08:26:53;;;;;;;13.10;6.40;;;;;;;12.35;77.06;101776.22;107298;1269;70485;-75
2022/10/14 08:29:24;;;;;;;11.90;6.70;;;;;;;12.42;77.03;101772.63;107169;1278;70815;-75
2022/10/14 08:31:54;;;;;;;12.70;7.30;;;;;;;12.49;76.60;101770.83;107164;1269;74363;-84
2022/10/14 08:34:26;;;;;;;10.60;6.70;;;;;;;12.57;76.66;101774.31;107199;1274;61966;-80
2022/10/14 08:36:55;;;;;;;14.80;6.70;;;;;;;12.59;76.43;101774.92;107238;1276;58165;-74
2022/10/14 08:39:24;;;;;;;16.10;9.30;;;;;;;12.53;76.46;101776.14;107250;1273;73763;-82
2022/10/14 08:42:02;;;;;;;12.90;6.90;;;;;;;12.63;76.19;101776.89;107198;1268;72542;-82
2022/10/14 08:45:07;;;;;;;13.00;7.00;;;;;;;12.60;76.22;101780.21;107164;1269;59863;-83
2022/10/14 08:47:42;;;;;;;14.70;7.20;;;;;;;12.51;76.29;101782.20;107201;1272;63582;-81
2022/10/14 08:50:36;;;;;;;14.70;7.00;;;;;;;12.55;76.20;101779.85;107051;1274;58545;-80
2022/10/14 08:53:16;;;;;;;15.40;7.80;;;;;;;12.44;76.05;101778.95;107152;1275;57771;-80
2022/10/14 08:55:55;;;;;;;13.00;7.10;;;;;;;12.48;75.92;101776.95;107096;1277;72371;-80
2022/10/14 08:58:44;;;;;;;16.70;10.90;;;;;;;12.57;75.80;101772.73;107277;1269;71857;-82
2022/10/14 09:01:52;;;;;;;15.60;8.70;;;;;;;12.52;76.10;101777.08;107140;1274;59584;-78
2022/10/14 09:04:21;;;;;;;13.70;7.30;;;;;;;12.64;75.54;101774.25;107188;1272;63267;-79
2022/10/14 09:06:52;;;;;;;15.70;8.00;;;;;;;12.66;75.13;101779.52;107227;1273;60340;-84
2022/10/14 09:09:29;;;;;;;16.00;8.40;;;;;;;12.73;75.00;101779.56;107238;1274;58224;-81
2022/10/14 09:12:04;;;;;;;16.40;8.00;;;;;;;12.69;75.30;101783.15;107245;1271;73515;-81
2022/10/14 09:14:38;;;;;;;10.60;6.60;;;;;;;12.78;75.28;101780.65;107268;1269;61435;-81
2022/10/14 09:17:35;;;;;;;15.20;7.00;;;;;;;12.83;74.96;101780.19;107167;1275;60234;-82
2022/10/14 09:20:23;;;;;;;12.40;6.80;;;;;;;12.90;74.65;101779.20;107146;1274;62554;-78
2022/10/14 09:23:09;;;;;;;11.10;5.80;;;;;;;12.90;74.82;101783.35;107102;1277;57781;-80
2022/10/14 09:25:45;;;;;;;12.50;6.10;;;;;;;13.02;74.31;101784.01;107191;1272;58289;-78
2022/10/14 09:28:14;;;;;;;12.20;6.30;;;;;;;12.96;74.22;101781.20;107157;1276;62987;-82
2022/10/14 09:30:45;;;;;;;13.30;6.30;;;;;;;12.91;74.65;101781.40;107278;1269;71506;-82
2022/10/14 09:33:19;;;;;;;11.60;5.50;;;;;;;12.92;74.52;101781.86;107162;1272;68968;-81
2022/10/14 09:35:48;;;;;;;11.80;6.70;;;;;;;13.00;74.15;101782.35;107133;1274;63520;-81
2022/10/14 09:38:20;;;;;;;12.00;6.40;;;;;;;13.10;73.98;101787.34;107146;1273;60937;-80
2022/10/14 09:40:55;;;;;;;14.80;7.50;;;;;;;13.17;73.34;101783.70;107186;1270;60901;-80
2022/10/14 09:43:24;;;;;;;16.60;7.70;;;;;;;13.10;73.31;101786.24;107159;1273;74867;-80
2022/10/14 09:46:00;;;;;;;11.90;6.60;;;;;;;13.17;72.89;101785.80;107320;1268;61336;-80
2022/10/14 09:48:38;;;;;;;14.60;6.90;;;;;;;13.32;72.55;101788.30;107205;1275;60759;-80
2022/10/14 09:51:29;;;;;;;13.50;6.80;;;;;;;13.36;72.23;101787.84;107087;1282;62584;-78
2022/10/14 09:54:01;;;;;;;14.00;7.10;;;;;;;13.32;72.34;101788.98;107155;1273;61278;-81
2022/10/14 09:56:35;;;;;;;11.70;6.70;;;;;;;13.32;72.29;101788.84;107214;1276;57735;-82
2022/10/14 09:59:28;;;;;;;14.20;6.80;;;;;;;13.30;72.62;101785.14;107120;1269;72561;-81
2022/10/14 10:02:02;;;;;;;13.40;6.30;;;;;;;13.39;72.86;101788.35;107236;1275;72234;-79
2022/10/14 10:04:45;;;;;;;11.20;6.00;;;;;;;13.29;73.15;101785.03;106949;1274;69576;-81
2022/10/14 10:07:41;;;;;;;10.90;6.30;;;;;;;13.27;73.10;101787.27;106953;1281;73937;-80
2022/10/14 10:10:20;;;;;;;13.10;7.90;;;;;;;13.25;73.37;101790.02;107044;1278;61619;-80
2022/10/14 10:12:49;;;;;;;11.50;6.70;;;;;;;13.26;73.45;101789.41;106937;1273;58155;-79
2022/10/14 10:15:20;;;;;;;11.20;6.20;;;;;;;13.23;73.23;101788.17;106896;1263;63006;-82
2022/10/14 10:17:49;;;;;;;12.90;6.60;;;;;;;13.29;73.06;101790.27;107023;1269;72179;-81
2022/10/14 10:20:38;;;;;;;15.00;7.00;;;;;;;13.23;73.18;101789.08;107056;1275;60385;-81
2022/10/14 10:23:24;;;;;;;11.90;6.90;;;;;;;13.33;73.01;101785.98;107074;1268;64224;-82
2022/10/14 10:25:52;;;;;;;13.50;6.40;;;;;;;13.33;72.89;101783.02;107158;1272;61356;-80
2022/10/14 10:28:31;;;;;;;14.30;7.40;;;;;;;13.43;72.79;101786.01;107149;1268;59551;-81
2022/10/14 10:31:22;;;;;;;21.00;7.40;;;;;;;13.50;72.42;101782.59;107140;1278;63399;-81
2022/10/14 10:34:50;;;;;;;11.60;6.80;;;;;;;13.50;71.96;101784.86;107253;1267;60959;-82
2022/10/14 10:37:34;;;;;;;12.80;6.80;;;;;;;13.45;72.27;101778.34;107141;1275;69658;-84
2022/10/14 10:40:33;;;;;;;15.60;6.90;;;;;;;13.45;71.94;101782.21;107159;1271;73685;-81
2022/10/14 10:43:36;;;;;;;16.00;8.20;;;;;;;13.44;71.94;101781.53;107156;1277;61264;-82
2022/10/14 10:46:50;;;;;;;18.50;7.40;;;;;;;13.54;71.96;101775.95;107216;1268;57767;-79
2022/10/14 10:49:35;;;;;;;;;;;;;;;13.62;72.02;101774.42;107161;1271;63856;-80
2022/10/14 10:52:27;;;;;;;14.00;7.50;;;;;;;13.69;71.48;101773.24;107307;1269;61629;-80
2022/10/14 10:55:34;;;;;;;12.40;7.10;;;;;;;13.56;72.06;101771.48;107182;1272;59975;-81
2022/10/14 10:58:12;;;;;;;16.40;7.40;;;;;;;13.65;71.36;101765.11;107205;1268;73220;-81
2022/10/14 11:01:23;;;;;;;14.20;7.40;;;;;;;13.73;70.90;101757.55;107188;1271;62638;-81
2022/10/14 11:04:41;;;;;;;12.10;6.90;;;;;;;13.79;70.54;101758.50;106915;1274;60818;-79
2022/10/14 11:14:40;;;;;;;16.00;8.10;;;;;;;13.88;69.48;101744.42;107279;1281;60323;-82
2022/10/14 11:17:48;;;;;;;14.70;7.90;;;;;;;13.92;69.33;101743.25;107330;1270;73013;-81
2022/10/14 11:20:49;;;;;;;14.00;8.80;;;;;;;14.11;69.08;101739.45;107166;1271;58223;-82
2022/10/14 11:23:58;;;;;;;19.00;8.40;;;;;;;14.13;68.99;101734.21;107282;1276;60222;-80
2022/10/14 11:26:46;;;;;;;14.70;7.30;;;;;;;14.16;68.72;101736.30;107207;1274;63892;-82
2022/10/14 11:30:13;;;;;;;17.70;8.00;;;;;;;14.34;68.03;101727.48;107367;1263;72298;-81
2022/10/14 11:32:42;;;;;;;18.60;8.00;;;;;;;14.42;67.85;101725.32;107097;1269;69109;-83
2022/10/14 11:35:25;;;;;;;12.40;7.80;;;;;;;14.56;67.75;101719.96;107207;1272;72828;-82
2022/10/14 11:38:29;;;;;;;11.60;6.20;;;;;;;14.84;66.50;101722.25;107227;1273;57736;-85
2022/10/14 11:41:38;;;;;;;12.50;6.70;;;;;;;14.98;65.60;101720.70;107109;1276;61205;-80
2022/10/14 11:44:31;;;;;;;11.00;5.90;;;;;;;15.21;64.75;101721.59;107192;1280;63561;-80
2022/10/14 11:47:08;;;;;;;11.30;5.80;;;;;;;15.46;64.08;101719.11;107296;1268;71301;-81
2022/10/14 11:50:09;;;;;;;12.40;7.00;;;;;;;15.15;64.36;101719.77;107256;1271;59928;-85
2022/10/14 11:52:51;;;;;;;9.80;5.80;;;;;;;14.96;64.97;101722.77;107216;1269;73275;-81
2022/10/14 11:55:23;;;;;;;9.00;5.00;;;;;;;14.72;64.11;101726.67;107078;1274;58292;-79
2022/10/14 11:57:58;;;;;;;9.20;5.40;;;;;;;14.94;63.28;101722.91;107293;1269;57778;-82